Time;durP1;ratioP1;P1;durP2;ratioP2;P2;SDS_P1;SDS_P2;PMS_P1;PMS_P2;Temp;Humidity;BMP_temperature;BMP_pressure;BME280_temperature;BME280_humidity;BME280_pressure;Samples;Min_cycle;Max_cycle;Signal;HPM_P1;HPM_P2
2023/01/30 00:01:25;;;;;;;;;;;;;;;2.59;70.20;95478.94;5033608;28;982;-52
2023/01/30 00:03:51;;;;;;;;;;;;;;;2.57;69.99;95474.72;5033605;28;1093;-52
2023/01/30 00:06:17;;;;;;;;;;;;;;;2.59;70.79;95470.19;5033554;28;1064;-52
2023/01/30 00:08:43;;;;;;;;;;;;;;;2.79;68.14;95474.94;5033300;28;1911;-52
2023/01/30 00:11:10;;;;;;;;;;;;;;;2.79;67.11;95467.03;5033672;28;1000;-52
2023/01/30 00:13:37;;;;;;;;;;;;;;;2.69;67.44;95465.94;5033475;28;1049;-52
2023/01/30 00:16:03;;;;;;;;;;;;;;;2.65;67.18;95472.41;5033552;28;1036;-52
2023/01/30 00:18:30;;;;;;;;;;;;;;;2.57;68.45;95464.16;5033247;28;1046;-52
2023/01/30 00:20:56;;;;;;;;;;;;;;;2.57;68.32;95462.38;5033237;28;1046;-52
2023/01/30 00:23:23;;;;;;;;;;;;;;;2.56;68.69;95468.56;5033124;28;958;-52
2023/01/30 00:25:49;;;;;;;;;;;;;;;2.50;70.94;95469.88;5033482;28;990;-52
2023/01/30 00:28:15;;;;;;;;;;;;;;;2.54;71.64;95470.47;5033377;28;1914;-52
2023/01/30 00:30:41;;;;;;;;;;;;;;;2.53;69.93;95467.00;5032149;28;1133;-52
2023/01/30 00:33:08;;;;;;;;;;;;;;;2.57;69.06;95459.72;5033149;28;1583;-52
2023/01/30 00:35:34;;;;;;;;;;;;;;;2.61;69.73;95457.72;5033204;28;1251;-52
2023/01/30 00:38:00;;;;;;;;;;;;;;;2.58;68.78;95460.56;5033040;28;1012;-52
2023/01/30 00:40:27;;;;;;;;;;;;;;;2.59;69.16;95467.53;5032886;28;1117;-52
2023/01/30 00:48:25;;;;;;;;;;;;;;;2.52;68.56;95467.09;5033037;28;1910;-52
2023/01/30 00:50:51;;;;;;;;;;;;;;;2.53;69.10;95455.59;5033289;28;1059;-52
2023/01/30 00:53:17;;;;;;;;;;;;;;;2.49;68.94;95462.03;5033233;28;1029;-52
2023/01/30 00:55:44;;;;;;;;;;;;;;;2.49;67.88;95457.59;5032971;28;1045;-52
2023/01/30 00:58:11;;;;;;;;;;;;;;;2.48;68.05;95461.19;5033087;28;1042;-52
2023/01/30 01:00:37;;;;;;;;;;;;;;;2.56;66.71;95460.66;5032009;28;1128;-52
2023/01/30 01:03:03;;;;;;;;;;;;;;;2.59;67.11;95456.97;5036791;28;1050;-52
2023/01/30 01:05:29;;;;;;;;;;;;;;;2.56;67.73;95454.53;5036892;28;977;-52
2023/01/30 01:07:55;;;;;;;;;;;;;;;2.53;67.00;95448.53;5036869;28;1910;-52
2023/01/30 01:10:22;;;;;;;;;;;;;;;2.52;68.25;95444.22;5036772;28;1052;-52
2023/01/30 01:12:49;;;;;;;;;;;;;;;2.49;68.41;95447.03;5036774;28;1025;-52
2023/01/30 01:15:15;;;;;;;;;;;;;;;2.53;66.99;95445.03;5035371;28;1070;-52
2023/01/30 01:17:41;;;;;;;;;;;;;;;2.57;66.62;95438.59;5036334;28;1028;-53
2023/01/30 01:20:08;;;;;;;;;;;;;;;2.46;66.75;95435.84;5036463;28;1156;-52
2023/01/30 01:22:34;;;;;;;;;;;;;;;2.43;67.31;95433.41;5036575;28;1048;-52
2023/01/30 01:25:00;;;;;;;;;;;;;;;2.40;67.99;95431.84;5036336;28;1062;-52
2023/01/30 01:27:27;;;;;;;;;;;;;;;2.39;68.07;95419.59;5036341;28;974;-52
2023/01/30 01:29:53;;;;;;;;;;;;;;;2.41;67.59;95433.53;5036270;28;1907;-51
2023/01/30 01:32:20;;;;;;;;;;;;;;;2.47;66.48;95429.63;5036022;28;1285;-52
2023/01/30 01:34:46;;;;;;;;;;;;;;;2.50;66.26;95427.63;5036146;28;1057;-52
2023/01/30 01:37:12;;;;;;;;;;;;;;;2.43;67.97;95430.78;5035983;28;1480;-52
2023/01/30 01:42:24;;;;;;;;;;;;;;;2.38;65.91;95428.47;5036103;28;1041;-52
2023/01/30 01:44:56;;;;;;;;;;;;;;;2.37;66.72;95418.84;5035976;28;970;-52
2023/01/30 01:47:23;;;;;;;;;;;;;;;2.36;66.38;95419.81;5036142;28;1037;-52
2023/01/30 01:49:49;;;;;;;;;;;;;;;2.38;66.27;95417.91;5035859;28;1906;-52
2023/01/30 01:52:15;;;;;;;;;;;;;;;2.32;66.92;95418.31;5035916;28;1041;-51
2023/01/30 01:54:44;;;;;;;;;;;;;;;2.47;66.08;95412.00;5035936;28;966;-52
2023/01/30 01:57:13;;;;;;;;;;;;;;;2.46;65.40;95405.00;5035908;28;1139;-52
2023/01/30 01:59:44;;;;;;;;;;;;;;;2.33;67.56;95412.94;5035651;28;982;-52
2023/01/30 02:02:11;;;;;;;;;;;;;;;2.32;67.02;95413.88;5034797;28;986;-52
2023/01/30 02:07:24;;;;;;;;;;;;;;;2.24;67.46;95407.44;5035539;28;1105;-52
2023/01/30 02:09:51;;;;;;;;;;;;;;;2.24;68.10;95403.03;5035508;28;1906;-52
2023/01/30 02:12:17;;;;;;;;;;;;;;;2.19;68.12;95401.63;5034173;28;1051;-52
2023/01/30 02:14:43;;;;;;;;;;;;;;;2.18;68.07;95395.50;5035628;28;1009;-52
2023/01/30 02:17:09;;;;;;;;;;;;;;;2.25;68.07;95393.31;5035585;28;1042;-52
2023/01/30 02:19:53;;;;;;;;;;;;;;;2.27;68.80;95388.75;5035360;28;1056;-52
2023/01/30 02:22:37;;;;;;;;;;;;;;;2.25;67.11;95382.75;5035227;28;1048;-52
2023/01/30 02:25:22;;;;;;;;;;;;;;;2.24;67.43;95379.28;5035502;28;1029;-52
2023/01/30 02:27:54;;;;;;;;;;;;;;;2.32;67.26;95376.09;5035129;28;1906;-52
2023/01/30 02:30:20;;;;;;;;;;;;;;;2.24;67.20;95373.13;5035238;28;978;-52
2023/01/30 02:32:55;;;;;;;;;;;;;;;2.15;68.29;95375.47;5035041;28;1502;-52
2023/01/30 02:35:41;;;;;;;;;;;;;;;2.12;68.72;95377.44;5035342;28;966;-52
2023/01/30 02:38:07;;;;;;;;;;;;;;;2.17;68.34;95379.78;5034976;28;1559;-52
2023/01/30 02:40:43;;;;;;;;;;;;;;;2.22;68.02;95373.25;5034816;28;1066;-52
2023/01/30 02:43:12;;;;;;;;;;;;;;;2.16;68.59;95381.56;5034999;28;1045;-52
2023/01/30 02:45:41;;;;;;;;;;;;;;;2.14;69.44;95380.84;5034802;28;1034;-52
2023/01/30 02:48:13;;;;;;;;;;;;;;;2.18;69.97;95373.56;5034993;28;1914;-52
2023/01/30 02:50:43;;;;;;;;;;;;;;;2.20;69.41;95376.94;5034930;28;1067;-52
2023/01/30 02:53:10;;;;;;;;;;;;;;;2.20;68.57;95380.44;5034856;28;982;-52
2023/01/30 02:55:38;;;;;;;;;;;;;;;2.22;68.12;95369.75;5034750;28;1041;-52
2023/01/30 02:58:04;;;;;;;;;;;;;;;2.23;68.54;95380.22;5034582;28;1052;-52
2023/01/30 03:00:45;;;;;;;;;;;;;;;2.13;68.99;95377.34;5034534;28;1050;-52
2023/01/30 03:03:34;;;;;;;;;;;;;;;2.13;69.35;95373.88;5034748;28;1021;-52
2023/01/30 03:06:13;;;;;;;;;;;;;;;2.12;69.04;95370.38;5034375;28;2039;-52
2023/01/30 03:08:45;;;;;;;;;;;;;;;2.12;68.73;95375.66;5033169;28;1916;-52
2023/01/30 03:11:12;;;;;;;;;;;;;;;2.11;65.30;95373.16;5034598;28;1013;-51
2023/01/30 03:13:38;;;;;;;;;;;;;;;2.13;66.17;95373.88;5034454;28;1009;-52
2023/01/30 03:16:07;;;;;;;;;;;;;;;2.08;66.50;95374.19;5034301;28;1070;-52
2023/01/30 03:18:34;;;;;;;;;;;;;;;2.10;65.33;95374.91;5034331;28;1036;-52
2023/01/30 03:21:04;;;;;;;;;;;;;;;2.05;65.98;95373.53;5034230;28;1035;-52
2023/01/30 03:23:30;;;;;;;;;;;;;;;2.01;66.04;95369.41;5033776;28;1021;-52
2023/01/30 03:25:57;;;;;;;;;;;;;;;2.11;64.61;95373.16;5034358;28;1333;-52
2023/01/30 03:28:24;;;;;;;;;;;;;;;2.03;66.21;95378.94;5034108;28;1914;-52
2023/01/30 03:30:50;;;;;;;;;;;;;;;2.00;67.14;95378.28;5034244;28;1076;-52
2023/01/30 03:33:16;;;;;;;;;;;;;;;2.13;66.12;95373.88;5033924;28;1567;-52
2023/01/30 03:35:42;;;;;;;;;;;;;;;2.09;66.69;95381.16;5033918;28;1026;-52
2023/01/30 03:38:08;;;;;;;;;;;;;;;2.04;66.41;95383.25;5033966;28;1041;-52
2023/01/30 03:40:34;;;;;;;;;;;;;;;2.05;67.33;95384.94;5033623;28;1330;-52
2023/01/30 03:43:00;;;;;;;;;;;;;;;2.07;66.87;95380.41;5034002;28;1037;-52
2023/01/30 03:45:27;;;;;;;;;;;;;;;1.97;66.88;95378.50;5033753;28;1120;-52
2023/01/30 03:47:53;;;;;;;;;;;;;;;2.03;65.37;95385.97;5033837;28;1993;-52
2023/01/30 03:50:19;;;;;;;;;;;;;;;2.00;64.91;95380.94;5033662;28;1037;-52
2023/01/30 03:52:45;;;;;;;;;;;;;;;1.95;66.02;95374.19;5033664;28;1049;-52
2023/01/30 03:55:11;;;;;;;;;;;;;;;1.97;65.49;95381.97;5033912;28;1136;-52
2023/01/30 03:57:37;;;;;;;;;;;;;;;2.10;65.10;95374.06;5033557;28;1050;-52
2023/01/30 04:00:03;;;;;;;;;;;;;;;2.10;65.06;95372.28;5033645;28;997;-52
2023/01/30 04:02:29;;;;;;;;;;;;;;;1.91;65.77;95372.69;5033604;28;1047;-52
2023/01/30 04:04:55;;;;;;;;;;;;;;;1.94;65.75;95371.63;5033496;28;1056;-52
2023/01/30 04:07:22;;;;;;;;;;;;;;;1.94;65.94;95364.56;5033694;28;1067;-52
2023/01/30 04:09:48;;;;;;;;;;;;;;;2.03;65.77;95372.78;5033378;28;1910;-52
2023/01/30 04:12:14;;;;;;;;;;;;;;;1.94;65.90;95358.47;5033552;28;1049;-52
2023/01/30 04:14:40;;;;;;;;;;;;;;;1.93;64.75;95359.38;5032155;28;1101;-52
2023/01/30 04:17:06;;;;;;;;;;;;;;;1.97;65.35;95354.75;5033412;28;1041;-52
2023/01/30 04:19:32;;;;;;;;;;;;;;;2.07;65.93;95361.13;5033335;28;974;-52
2023/01/30 04:21:58;;;;;;;;;;;;;;;2.04;66.12;95356.88;5033572;28;1009;-52
2023/01/30 04:24:24;;;;;;;;;;;;;;;1.96;65.22;95353.91;5033225;28;1560;-52
2023/01/30 04:26:50;;;;;;;;;;;;;;;2.09;65.51;95349.50;5033427;28;1005;-52
2023/01/30 04:29:16;;;;;;;;;;;;;;;1.89;64.57;95350.84;5033268;28;1989;-52
2023/01/30 04:31:42;;;;;;;;;;;;;;;1.86;65.73;95350.19;5033211;28;1571;-52
2023/01/30 04:34:08;;;;;;;;;;;;;;;1.90;65.49;95355.19;5033108;28;966;-52
2023/01/30 04:36:35;;;;;;;;;;;;;;;2.05;63.92;95348.03;5035008;28;1050;-52
2023/01/30 04:39:02;;;;;;;;;;;;;;;1.97;64.74;95350.31;5037154;28;1117;-53
2023/01/30 04:41:28;;;;;;;;;;;;;;;1.95;64.99;95360.13;5037342;28;1024;-52
2023/01/30 04:43:54;;;;;;;;;;;;;;;1.89;66.02;95347.38;5037278;28;1010;-52
2023/01/30 04:46:20;;;;;;;;;;;;;;;1.78;64.64;95355.16;5037087;28;1009;-52
2023/01/30 04:48:46;;;;;;;;;;;;;;;1.78;64.64;95360.44;5036935;28;1906;-52
2023/01/30 04:51:12;;;;;;;;;;;;;;;1.80;65.27;95347.97;5037213;28;1045;-52
2023/01/30 04:53:38;;;;;;;;;;;;;;;1.87;65.24;95359.81;5037097;28;1344;-52
2023/01/30 04:56:04;;;;;;;;;;;;;;;1.92;66.16;95361.19;5037147;28;969;-53
2023/01/30 04:58:30;;;;;;;;;;;;;;;1.88;65.96;95356.25;5036723;28;1045;-53
2023/01/30 05:01:10;;;;;;;;;;;;;;;1.75;65.36;95359.69;5036843;28;1140;-52
2023/01/30 05:03:36;;;;;;;;;;;;;;;1.73;66.39;95358.94;5036732;28;1053;-52
2023/01/30 05:06:02;;;;;;;;;;;;;;;1.82;65.86;95361.91;5036680;28;1130;-52
2023/01/30 05:08:28;;;;;;;;;;;;;;;1.92;66.52;95361.19;5036856;28;1985;-52
2023/01/30 05:10:56;;;;;;;;;;;;;;;1.80;65.63;95354.09;5035650;28;1017;-52
2023/01/30 05:13:22;;;;;;;;;;;;;;;1.84;65.94;95352.97;5036664;28;966;-52
2023/01/30 05:15:48;;;;;;;;;;;;;;;1.72;66.14;95353.78;5036669;28;1017;-52
2023/01/30 05:18:14;;;;;;;;;;;;;;;1.75;66.48;95346.50;5036458;28;1741;-52
2023/01/30 05:20:40;;;;;;;;;;;;;;;1.78;66.17;95342.81;5036637;28;1002;-52
2023/01/30 05:23:06;;;;;;;;;;;;;;;1.93;65.21;95338.28;5036454;28;1085;-52
2023/01/30 05:25:33;;;;;;;;;;;;;;;1.94;65.86;95332.91;5036540;28;973;-52
2023/01/30 05:28:00;;;;;;;;;;;;;;;1.85;65.56;95338.81;5036384;28;1906;-52
2023/01/30 05:30:26;;;;;;;;;;;;;;;1.79;66.71;95339.22;5036316;28;1005;-52
2023/01/30 05:32:52;;;;;;;;;;;;;;;1.82;66.42;95339.03;5036135;28;1552;-52
2023/01/30 05:35:18;;;;;;;;;;;;;;;1.88;66.01;95335.97;5036292;28;1009;-52
2023/01/30 05:37:48;;;;;;;;;;;;;;;1.78;65.84;95332.25;5036256;28;1736;-52
2023/01/30 05:40:14;;;;;;;;;;;;;;;1.79;66.66;95341.03;5036083;28;1189;-52
2023/01/30 05:42:40;;;;;;;;;;;;;;;1.81;66.43;95342.59;5036102;28;1028;-52
2023/01/30 05:45:06;;;;;;;;;;;;;;;1.52;66.11;95302.41;5036031;28;1049;-52
2023/01/30 05:47:32;;;;;;;;;;;;;;;1.87;65.68;95341.34;5035663;28;1313;-52
2023/01/30 05:49:58;;;;;;;;;;;;;;;1.93;65.63;95347.03;5036140;28;1984;-52
2023/01/30 05:52:24;;;;;;;;;;;;;;;1.88;64.86;95345.69;5036104;28;1020;-52
2023/01/30 05:54:50;;;;;;;;;;;;;;;1.89;65.97;95336.81;5034851;28;1017;-52
2023/01/30 05:57:16;;;;;;;;;;;;;;;1.97;65.30;95334.50;5035977;28;966;-52
2023/01/30 05:59:43;;;;;;;;;;;;;;;1.90;65.71;95342.00;5035704;28;1043;-52
2023/01/30 06:02:09;;;;;;;;;;;;;;;2.00;64.98;95344.84;5035783;28;1058;-52
2023/01/30 06:04:35;;;;;;;;;;;;;;;1.96;65.40;95340.72;5035837;28;997;-53
2023/01/30 06:07:01;;;;;;;;;;;;;;;1.97;64.19;95342.41;5035918;28;974;-53
2023/01/30 06:09:27;;;;;;;;;;;;;;;1.99;64.96;95340.50;5035627;28;1989;-54
2023/01/30 06:11:54;;;;;;;;;;;;;;;1.97;65.92;95342.41;5035687;28;1044;-54
2023/01/30 06:14:20;;;;;;;;;;;;;;;2.00;65.20;95338.75;5035461;28;1128;-53
2023/01/30 06:16:46;;;;;;;;;;;;;;;2.00;66.34;95344.84;5035352;28;1121;-53
2023/01/30 06:19:12;;;;;;;;;;;;;;;2.04;65.12;95341.06;5035677;28;985;-53
2023/01/30 06:21:38;;;;;;;;;;;;;;;2.01;65.32;95341.28;5035523;28;1010;-53
2023/01/30 06:24:04;;;;;;;;;;;;;;;1.96;65.56;95340.72;5035358;28;1062;-54
2023/01/30 06:26:30;;;;;;;;;;;;;;;1.96;65.22;95340.72;5035378;28;1033;-53
2023/01/30 06:28:56;;;;;;;;;;;;;;;1.89;66.33;95339.47;5035233;28;1898;-53
2023/01/30 06:31:22;;;;;;;;;;;;;;;1.97;66.37;95337.13;5034977;28;1608;-53
2023/01/30 06:33:48;;;;;;;;;;;;;;;1.93;65.84;95338.28;5035299;28;1117;-53
2023/01/30 06:36:14;;;;;;;;;;;;;;;1.84;64.60;95339.78;5035325;28;1044;-54
2023/01/30 06:38:40;;;;;;;;;;;;;;;1.80;65.91;95340.91;5034973;28;1078;-54
2023/01/30 06:41:06;;;;;;;;;;;;;;;1.95;66.57;95336.41;5034996;28;1046;-53
2023/01/30 06:43:32;;;;;;;;;;;;;;;1.99;66.29;95335.22;5034909;28;1044;-53
2023/01/30 06:45:59;;;;;;;;;;;;;;;2.03;66.88;95334.09;5034844;28;1058;-53
2023/01/30 06:48:25;;;;;;;;;;;;;;;2.04;66.45;95333.13;5034715;28;1914;-53
2023/01/30 06:50:51;;;;;;;;;;;;;;;2.05;65.32;95328.69;5033635;28;1108;-52
2023/01/30 06:53:18;;;;;;;;;;;;;;;2.03;65.10;95327.97;5034859;28;1013;-53
2023/01/30 06:55:44;;;;;;;;;;;;;;;2.12;65.48;95324.69;5034811;28;1025;-53
2023/01/30 06:58:11;;;;;;;;;;;;;;;2.20;64.48;95326.81;5034056;28;1034;-52
2023/01/30 07:00:38;;;;;;;;;;;;;;;2.20;64.26;95327.66;5034271;28;981;-52
2023/01/30 07:03:05;;;;;;;;;;;;;;;2.16;64.50;95336.72;5034594;28;1062;-52
2023/01/30 07:05:32;;;;;;;;;;;;;;;2.19;64.21;95338.31;5034463;28;1128;-52
2023/01/30 07:07:58;;;;;;;;;;;;;;;2.18;66.15;95332.19;5034598;28;1995;-52
2023/01/30 07:10:25;;;;;;;;;;;;;;;2.26;63.70;95337.78;5034564;28;1025;-52
2023/01/30 07:12:52;;;;;;;;;;;;;;;2.28;64.86;95340.34;5034527;28;1021;-52
2023/01/30 07:15:18;;;;;;;;;;;;;;;2.30;63.65;95348.97;5034341;28;1044;-52
2023/01/30 07:17:44;;;;;;;;;;;;;;;2.23;63.87;95350.34;5034501;28;1009;-52
2023/01/30 07:20:10;;;;;;;;;;;;;;;2.16;64.92;95352.53;5034476;28;985;-52
2023/01/30 07:22:36;;;;;;;;;;;;;;;2.27;64.81;95354.47;5034345;28;1060;-52
2023/01/30 07:25:02;;;;;;;;;;;;;;;2.32;63.48;95357.63;5034335;28;962;-52
2023/01/30 07:27:28;;;;;;;;;;;;;;;2.28;63.34;95354.38;5034121;28;973;-52
2023/01/30 07:29:54;;;;;;;;;;;;;;;2.25;64.54;95354.56;5033994;28;1987;-52
2023/01/30 07:32:21;;;;;;;;;;;;;;;2.32;64.10;95360.28;5034135;28;1625;-52
2023/01/30 07:34:47;;;;;;;;;;;;;;;2.36;64.39;95363.56;5034221;28;1040;-52
2023/01/30 07:37:13;;;;;;;;;;;;;;;2.39;62.15;95358.91;5034166;28;970;-52
2023/01/30 07:39:39;;;;;;;;;;;;;;;2.48;62.86;95363.53;5033717;28;1084;-52
2023/01/30 07:42:05;;;;;;;;;;;;;;;2.35;63.00;95365.31;5033837;28;1871;-52
2023/01/30 07:44:33;;;;;;;;;;;;;;;2.31;62.77;95363.84;5033709;28;973;-53
2023/01/30 07:46:59;;;;;;;;;;;;;;;2.26;63.46;95361.53;5033841;28;954;-53
2023/01/30 07:49:25;;;;;;;;;;;;;;;2.42;63.66;95356.03;5032842;28;1918;-53
2023/01/30 07:51:51;;;;;;;;;;;;;;;2.56;62.92;95356.88;5033308;28;1057;-53
2023/01/30 07:54:17;;;;;;;;;;;;;;;2.45;63.15;95358.47;5032564;28;1014;-54
2023/01/30 07:56:43;;;;;;;;;;;;;;;2.52;62.36;95356.25;5032499;28;950;-54
2023/01/30 07:59:10;;;;;;;;;;;;;;;2.45;61.19;95369.03;5032355;28;1017;-54
2023/01/30 08:01:36;;;;;;;;;;;;;;;2.34;61.95;95369.75;5033470;28;1054;-53
2023/01/30 08:04:03;;;;;;;;;;;;;;;2.41;61.39;95364.91;5033683;28;962;-53
2023/01/30 08:06:29;;;;;;;;;;;;;;;2.48;61.13;95371.44;5033542;28;997;-54
2023/01/30 08:08:55;;;;;;;;;;;;;;;2.41;61.39;95375.47;5033381;28;1997;-54
2023/01/30 08:11:21;;;;;;;;;;;;;;;2.41;61.78;95369.34;5032025;28;962;-54
2023/01/30 08:13:47;;;;;;;;;;;;;;;2.42;61.08;95373.69;5033361;28;1017;-53
2023/01/30 08:16:13;;;;;;;;;;;;;;;2.48;62.68;95375.88;5033539;28;1058;-53
2023/01/30 08:18:39;;;;;;;;;;;;;;;2.61;60.12;95368.78;5033404;28;1060;-53
2023/01/30 08:21:05;;;;;;;;;;;;;;;2.40;61.69;95368.50;5033491;28;1108;-54
2023/01/30 08:23:32;;;;;;;;;;;;;;;2.43;61.96;95370.94;5033319;28;966;-54
2023/01/30 08:25:59;;;;;;;;;;;;;;;2.46;60.95;95362.78;5033323;28;1025;-53
2023/01/30 08:28:26;;;;;;;;;;;;;;;2.42;62.34;95358.69;5032965;28;1909;-54
2023/01/30 08:30:53;;;;;;;;;;;;;;;2.32;62.72;95361.13;5033439;28;1033;-54
2023/01/30 08:33:20;;;;;;;;;;;;;;;2.46;62.04;95352.22;5033197;28;1375;-53
2023/01/30 08:35:46;;;;;;;;;;;;;;;2.45;62.16;95352.38;5033144;28;930;-53
2023/01/30 08:38:12;;;;;;;;;;;;;;;2.37;62.63;95354.66;5033091;28;1130;-54
2023/01/30 08:40:38;;;;;;;;;;;;;;;2.36;62.38;95348.56;5032885;28;1220;-53
2023/01/30 08:43:05;;;;;;;;;;;;;;;2.32;61.93;95342.63;5033074;28;989;-53
2023/01/30 08:45:31;;;;;;;;;;;;;;;2.21;62.37;95339.91;5033198;28;1045;-53
2023/01/30 08:48:01;;;;;;;;;;;;;;;2.30;62.18;95338.44;5033222;28;1052;-53
2023/01/30 08:50:27;;;;;;;;;;;;;;;2.41;61.78;95342.94;5032962;28;1046;-53
2023/01/30 08:52:53;;;;;;;;;;;;;;;2.41;61.29;95341.16;5031841;28;1053;-54
2023/01/30 08:55:20;;;;;;;;;;;;;;;2.58;60.69;95344.41;5032840;28;1066;-54
2023/01/30 08:57:46;;;;;;;;;;;;;;;2.51;60.69;95336.94;5032950;28;978;-52
2023/01/30 09:00:12;;;;;;;;;;;;;;;2.52;60.44;95330.72;5033170;28;1056;-54
2023/01/30 09:02:39;;;;;;;;;;;;;;;2.75;59.69;95330.84;5033043;28;1043;-53
2023/01/30 09:05:05;;;;;;;;;;;;;;;2.85;58.73;95323.97;5031852;28;1064;-53
2023/01/30 09:07:32;;;;;;;;;;;;;;;2.85;60.48;95321.34;5032804;28;1061;-54
2023/01/30 09:09:58;;;;;;;;;;;;;;;2.86;58.93;95317.72;5032829;28;1995;-54
2023/01/30 09:12:24;;;;;;;;;;;;;;;2.77;59.91;95306.97;5033263;28;1109;-53
2023/01/30 09:14:54;;;;;;;;;;;;;;;2.78;60.00;95301.59;5033062;28;1052;-53
2023/01/30 09:17:20;;;;;;;;;;;;;;;2.78;59.42;95303.41;5032879;28;1052;-53
2023/01/30 09:19:46;;;;;;;;;;;;;;;2.71;60.84;95302.97;5032922;28;1214;-53
2023/01/30 09:22:12;;;;;;;;;;;;;;;2.67;60.64;95297.06;5034031;28;1057;-53
2023/01/30 09:24:38;;;;;;;;;;;;;;;2.71;61.48;95295.94;5036325;28;1068;-53
2023/01/30 09:27:04;;;;;;;;;;;;;;;2.62;59.92;95298.34;5036343;28;1046;-53
2023/01/30 09:29:30;;;;;;;;;;;;;;;2.65;60.32;95283.16;5036332;28;1902;-52
2023/01/30 09:31:57;;;;;;;;;;;;;;;2.78;60.20;95285.75;5036158;28;1254;-53
2023/01/30 09:34:27;;;;;;;;;;;;;;;2.74;59.81;95285.13;5036109;28;1045;-52
2023/01/30 09:36:54;;;;;;;;;;;;;;;2.90;59.44;95287.53;5036317;28;1051;-53
2023/01/30 09:39:20;;;;;;;;;;;;;;;2.91;59.01;95285.72;5035839;28;1237;-53
2023/01/30 09:41:46;;;;;;;;;;;;;;;2.90;59.97;95279.59;5036046;28;1046;-53
2023/01/30 09:44:37;;;;;;;;;;;;;;;2.79;58.69;95283.94;5036270;28;973;-53
2023/01/30 09:47:10;;;;;;;;;;;;;;;2.83;58.38;95277.53;5036044;28;1124;-53
2023/01/30 09:49:42;;;;;;;;;;;;;;;2.90;59.97;95281.38;5035790;28;1983;-53
2023/01/30 09:52:14;;;;;;;;;;;;;;;3.13;59.06;95283.19;5036255;28;986;-52
2023/01/30 09:54:43;;;;;;;;;;;;;;;3.04;56.77;95275.94;5035964;28;981;-53
2023/01/30 09:57:12;;;;;;;;;;;;;;;2.80;57.86;95269.81;5035814;28;1187;-53
2023/01/30 09:59:46;;;;;;;;;;;;;;;2.86;58.25;95261.44;5035792;28;989;-53
2023/01/30 10:02:12;;;;;;;;;;;;;;;2.98;55.96;95272.91;5035851;28;981;-53
2023/01/30 10:04:41;;;;;;;;;;;;;;;3.22;57.68;95259.69;5035508;28;961;-53
2023/01/30 10:07:22;;;;;;;;;;;;;;;3.16;55.86;95263.63;5035630;28;1058;-52
2023/01/30 10:09:57;;;;;;;;;;;;;;;3.36;57.83;95254.25;5035581;28;1898;-53
2023/01/30 10:12:43;;;;;;;;;;;;;;;3.10;56.92;95251.72;5035565;28;966;-52
2023/01/30 10:15:18;;;;;;;;;;;;;;;3.03;56.42;95254.91;5035443;28;1058;-52
2023/01/30 10:17:47;;;;;;;;;;;;;;;3.13;57.41;95251.50;5035596;28;1312;-52
2023/01/30 10:20:30;;;;;;;;;;;;;;;3.23;57.82;95238.44;5035690;28;1025;-51
2023/01/30 10:23:03;;;;;;;;;;;;;;;3.42;56.70;95245.84;5035388;28;1089;-52
2023/01/30 10:25:49;;;;;;;;;;;;;;;3.49;56.77;95230.34;5035275;28;1039;-52
2023/01/30 10:28:25;;;;;;;;;;;;;;;3.51;56.05;95231.94;5035216;28;1997;-53
2023/01/30 10:30:54;;;;;;;;;;;;;;;3.54;56.54;95230.84;5035135;28;1038;-53
2023/01/30 10:33:27;;;;;;;;;;;;;;;3.52;57.77;95219.56;5034862;28;1380;-53
2023/01/30 10:35:59;;;;;;;;;;;;;;;3.69;56.76;95218.25;5033887;28;1125;-52
2023/01/30 10:38:28;;;;;;;;;;;;;;;3.57;53.81;95212.13;5035247;28;989;-53
2023/01/30 10:41:09;;;;;;;;;;;;;;;3.38;55.52;95199.47;5034791;28;1229;-53
2023/01/30 10:43:49;;;;;;;;;;;;;;;3.34;55.10;95198.00;5034913;28;1089;-53
2023/01/30 10:46:18;;;;;;;;;;;;;;;3.59;56.32;95189.03;5034863;28;1030;-53
2023/01/30 10:48:57;;;;;;;;;;;;;;;3.48;55.97;95187.22;5034985;28;2005;-53
2023/01/30 10:51:29;;;;;;;;;;;;;;;3.54;55.77;95191.19;5034706;28;1105;-53
2023/01/30 10:54:12;;;;;;;;;;;;;;;3.45;55.66;95176.03;5034723;28;1070;-53
2023/01/30 10:56:46;;;;;;;;;;;;;;;3.41;55.28;95178.06;5034672;28;972;-55
2023/01/30 10:59:15;;;;;;;;;;;;;;;3.59;57.13;95173.19;5034682;28;1053;-53
2023/01/30 11:01:51;;;;;;;;;;;;;;;3.81;57.95;95163.56;5034777;28;1056;-54
2023/01/30 11:04:20;;;;;;;;;;;;;;;3.82;56.22;95165.28;5034732;28;1008;-54
2023/01/30 11:06:47;;;;;;;;;;;;;;;3.89;55.26;95162.03;5034424;28;1013;-53
2023/01/30 11:09:13;;;;;;;;;;;;;;;3.75;53.78;95159.59;5034388;28;1985;-53
2023/01/30 11:11:45;;;;;;;;;;;;;;;3.57;54.33;95143.38;5034597;28;1028;-54
2023/01/30 11:14:11;;;;;;;;;;;;;;;3.67;56.44;95133.75;5034313;28;1085;-53
2023/01/30 11:16:56;;;;;;;;;;;;;;;3.71;55.10;95137.00;5034263;28;1053;-52
2023/01/30 11:19:24;;;;;;;;;;;;;;;3.51;55.31;95130.66;5034192;28;1101;-53
2023/01/30 11:21:51;;;;;;;;;;;;;;;3.50;56.54;95121.00;5034165;28;1056;-53
2023/01/30 11:24:19;;;;;;;;;;;;;;;3.58;56.36;95121.25;5034709;28;1025;-53
2023/01/30 11:26:45;;;;;;;;;;;;;;;3.84;55.12;95118.38;5034271;28;1343;-53
2023/01/30 11:29:23;;;;;;;;;;;;;;;3.79;55.40;95109.97;5033999;28;1910;-53
2023/01/30 11:31:49;;;;;;;;;;;;;;;3.77;54.51;95103.94;5034088;28;1320;-53
2023/01/30 11:34:16;;;;;;;;;;;;;;;3.49;52.82;95101.69;5034353;28;1042;-53
2023/01/30 11:36:45;;;;;;;;;;;;;;;3.48;54.69;95092.06;5033849;28;1070;-53
2023/01/30 11:43:12;;;;;;;;;;;;;;;4.04;55.05;95071.81;5029664;28;1307;-53
2023/01/30 11:45:47;;;;;;;;;;;;;;;3.80;54.22;95069.34;5033222;28;1133;-53
2023/01/30 11:48:18;;;;;;;;;;;;;;;3.74;53.70;95064.50;5033844;28;2001;-53
2023/01/30 11:50:47;;;;;;;;;;;;;;;3.63;54.08;95063.56;5033834;28;973;-53
2023/01/30 11:53:19;;;;;;;;;;;;;;;3.67;53.73;95054.44;5033526;28;1046;-53
2023/01/30 11:55:45;;;;;;;;;;;;;;;4.00;54.98;95052.69;5033889;28;966;-54
2023/01/30 11:58:12;;;;;;;;;;;;;;;3.97;52.41;95063.53;5033588;28;1124;-53
2023/01/30 12:00:47;;;;;;;;;;;;;;;3.96;54.70;95042.50;5032454;28;1001;-53
2023/01/30 12:03:15;;;;;;;;;;;;;;;3.92;53.48;95052.47;5033491;28;1053;-53
2023/01/30 12:05:43;;;;;;;;;;;;;;;3.88;53.41;95045.75;5033373;28;977;-53
2023/01/30 12:08:15;;;;;;;;;;;;;;;3.74;53.93;95044.22;5033405;28;1918;-53
2023/01/30 12:10:42;;;;;;;;;;;;;;;3.85;55.15;95038.06;5033460;28;970;-51
2023/01/30 12:13:29;;;;;;;;;;;;;;;3.82;52.30;95040.97;5033566;28;1005;-53
2023/01/30 12:16:01;;;;;;;;;;;;;;;3.85;55.55;95027.47;5019781;28;1339;-52
2023/01/30 12:18:36;;;;;;;;;;;;;;;4.04;55.24;95027.69;5033177;28;1109;-53
2023/01/30 12:21:02;;;;;;;;;;;;;;;4.10;55.03;95013.97;5033531;28;962;-53
2023/01/30 12:23:45;;;;;;;;;;;;;;;3.92;54.37;95011.00;5032160;28;986;-53
2023/01/30 12:26:19;;;;;;;;;;;;;;;3.99;53.52;95008.69;5033000;28;1117;-53
2023/01/30 12:28:50;;;;;;;;;;;;;;;3.63;52.67;95010.69;5032994;28;1914;-53
2023/01/30 12:31:37;;;;;;;;;;;;;;;3.48;52.81;95006.63;5033278;28;1332;-53
2023/01/30 12:34:03;;;;;;;;;;;;;;;3.67;53.05;94998.91;5032924;28;1438;-53
2023/01/30 12:36:48;;;;;;;;;;;;;;;3.99;52.82;94994.66;5033067;28;1126;-53
2023/01/30 12:39:21;;;;;;;;;;;;;;;4.06;51.86;94990.50;5032971;28;1058;-54
2023/01/30 12:42:06;;;;;;;;;;;;;;;4.04;51.99;94976.56;5032785;28;1086;-54
2023/01/30 12:44:32;;;;;;;;;;;;;;;4.30;51.42;94979.72;5032911;28;1066;-53
2023/01/30 12:47:12;;;;;;;;;;;;;;;4.36;51.95;94968.63;5033008;28;1124;-53
2023/01/30 12:49:48;;;;;;;;;;;;;;;4.28;52.66;94960.47;5031668;28;1985;-53
2023/01/30 12:52:24;;;;;;;;;;;;;;;4.02;52.00;94967.91;5033170;28;1043;-53
2023/01/30 12:54:50;;;;;;;;;;;;;;;3.81;52.42;94957.28;5033083;28;1049;-53
2023/01/30 12:57:35;;;;;;;;;;;;;;;3.91;54.52;94950.31;5034327;28;1132;-53
2023/01/30 13:00:33;;;;;;;;;;;;;;;4.13;55.04;94953.81;5036792;28;1113;-53
2023/01/30 13:03:12;;;;;;;;;;;;;;;4.22;54.12;94959.19;5003650;28;1155;-53
2023/01/30 13:05:42;;;;;;;;;;;;;;;4.00;53.13;94956.63;5036661;28;1049;-53
2023/01/30 13:08:25;;;;;;;;;;;;;;;3.64;52.37;94951.56;5036817;28;1020;-53
2023/01/30 13:11:12;;;;;;;;;;;;;;;3.60;53.99;94952.75;5036680;28;1089;-53
2023/01/30 13:13:41;;;;;;;;;;;;;;;3.64;53.86;94948.94;5005808;28;1183;-53
2023/01/30 13:16:17;;;;;;;;;;;;;;;3.69;54.32;94952.03;5036493;28;1029;-53
2023/01/30 13:18:51;;;;;;;;;;;;;;;3.73;53.93;94947.34;5036423;28;1038;-53
2023/01/30 13:21:17;;;;;;;;;;;;;;;3.85;53.66;94946.34;5036473;28;1140;-53
2023/01/30 13:23:56;;;;;;;;;;;;;;;3.91;54.37;94945.00;5036374;28;1105;-53
2023/01/30 13:26:26;;;;;;;;;;;;;;;3.82;53.19;94937.81;5036483;28;974;-53
2023/01/30 13:28:55;;;;;;;;;;;;;;;3.65;53.36;94936.53;5036155;28;1997;-53
2023/01/30 13:31:23;;;;;;;;;;;;;;;3.54;54.25;94923.34;5035952;28;1579;-53
2023/01/30 13:33:51;;;;;;;;;;;;;;;3.48;53.97;94935.25;5036472;28;1029;-52